Time;durP1;ratioP1;P1;durP2;ratioP2;P2;SDS_P1;SDS_P2;PMS_P1;PMS_P2;Temp;Humidity;BMP_temperature;BMP_pressure;BME280_temperature;BME280_humidity;BME280_pressure;Samples;Min_cycle;Max_cycle;Signal;HPM_P1;HPM_P2
2024/01/31 00:00:51;;;;;;;1.83;1.40;;;;;;;7.00;100.00;102803.66;6230008;28;20235;-71
2024/01/31 00:04:12;;;;;;;2.53;1.27;;;;;;;7.11;100.00;102811.25;6230412;28;20229;-70
2024/01/31 00:07:33;;;;;;;1.37;1.27;;;;;;;7.08;100.00;102817.63;6236383;28;20260;-71
2024/01/31 00:10:54;;;;;;;3.87;2.10;;;;;;;6.96;100.00;102815.47;6247832;28;20232;-71
2024/01/31 00:14:18;;;;;;;1.63;1.37;;;;;;;6.89;100.00;102816.66;6250250;28;20236;-71
2024/01/31 00:17:39;;;;;;;1.20;1.10;;;;;;;6.95;100.00;102819.06;6237640;28;20273;-71
2024/01/31 00:21:00;;;;;;;7.57;1.80;;;;;;;6.96;100.00;102830.69;6237852;28;20223;-70
2024/01/31 00:24:21;;;;;;;2.80;1.30;;;;;;;6.83;100.00;102824.06;6250906;28;20236;-72
2024/01/31 00:27:42;;;;;;;4.13;1.50;;;;;;;6.64;100.00;102834.69;6239981;28;20256;-71
2024/01/31 00:31:04;;;;;;;2.40;1.40;;;;;;;6.69;100.00;102832.72;6243301;28;20774;-70
2024/01/31 00:34:25;;;;;;;2.50;1.20;;;;;;;6.75;100.00;102835.13;6256468;28;20258;-72
2024/01/31 00:37:46;;;;;;;2.73;2.03;;;;;;;6.59;100.00;102836.72;6244052;28;20248;-71
2024/01/31 00:41:07;;;;;;;1.40;1.30;;;;;;;6.49;100.00;102838.00;6239145;28;20323;-71
2024/01/31 00:44:28;;;;;;;9.27;2.60;;;;;;;6.57;100.00;102838.53;6250366;28;20224;-70
2024/01/31 00:47:51;;;;;;;3.30;1.87;;;;;;;6.38;100.00;102841.09;6237067;28;20623;-70
2024/01/31 00:51:12;;;;;;;5.40;1.97;;;;;;;6.50;100.00;102842.44;6241460;28;20231;-71
2024/01/31 00:54:33;;;;;;;4.47;1.80;;;;;;;6.46;100.00;102848.84;6252071;28;20310;-70
2024/01/31 00:57:54;;;;;;;5.13;2.63;;;;;;;6.63;100.00;102858.88;6224549;28;20229;-71
2024/01/31 01:01:15;;;;;;;4.13;2.57;;;;;;;6.56;100.00;102866.28;6241653;28;20231;-71
2024/01/31 01:04:37;;;;;;;5.00;2.20;;;;;;;6.51;100.00;102865.59;6255726;28;20251;-71
2024/01/31 01:07:58;;;;;;;4.97;1.80;;;;;;;6.42;100.00;102874.88;6250301;28;20232;-71
2024/01/31 01:11:19;;;;;;;4.57;2.60;;;;;;;6.51;100.00;102875.47;6247236;28;20235;-70
2024/01/31 01:14:40;;;;;;;3.00;2.07;;;;;;;6.34;100.00;102879.66;6244725;28;20609;-71
2024/01/31 01:18:01;;;;;;;9.90;2.83;;;;;;;6.34;100.00;102873.44;6238128;28;20664;-70
2024/01/31 01:21:24;;;;;;;4.97;2.00;;;;;;;6.53;100.00;102871.75;6222494;28;20719;-71
2024/01/31 01:24:45;;;;;;;4.87;2.23;;;;;;;6.36;100.00;102887.66;6249672;28;20241;-71
2024/01/31 01:28:06;;;;;;;6.23;1.50;;;;;;;6.40;100.00;102890.13;6249348;28;20227;-71
2024/01/31 01:31:27;;;;;;;2.80;1.43;;;;;;;6.40;100.00;102889.28;6230741;28;20224;-70
2024/01/31 01:34:48;;;;;;;1.77;1.67;;;;;;;6.32;100.00;102894.06;6250581;28;20235;-71
2024/01/31 01:38:10;;;;;;;2.57;1.50;;;;;;;6.29;100.00;102896.84;6250763;28;20229;-71
2024/01/31 01:41:31;;;;;;;2.03;1.80;;;;;;;6.40;100.00;102900.84;6241925;28;20314;-71
2024/01/31 01:44:52;;;;;;;4.23;1.10;;;;;;;6.44;100.00;102918.56;6249760;28;20575;-71
2024/01/31 01:48:15;;;;;;;1.50;0.90;;;;;;;6.42;100.00;102909.69;6239224;28;21201;-71
2024/01/31 01:51:36;;;;;;;2.17;1.20;;;;;;;6.41;100.00;102917.78;6239847;28;22261;-71
2024/01/31 01:55:02;;;;;;;0.80;0.70;;;;;;;6.40;100.00;102922.25;6250341;28;20228;-72
2024/01/31 01:58:24;;;;;;;2.40;0.80;;;;;;;6.22;100.00;102925.66;6248794;28;20232;-70
2024/01/31 02:01:45;;;;;;;0.70;0.70;;;;;;;6.30;100.00;102933.44;6236852;28;20224;-71
2024/01/31 02:05:08;;;;;;;0.77;0.70;;;;;;;6.18;100.00;102940.09;6222206;28;20236;-71
2024/01/31 02:08:29;;;;;;;3.70;1.83;;;;;;;6.18;100.00;102933.84;6243470;28;20615;-70
2024/01/31 02:11:52;;;;;;;3.47;0.93;;;;;;;6.31;100.00;102940.50;6238402;28;20225;-71
2024/01/31 02:15:13;;;;;;;1.57;1.40;;;;;;;6.29;100.00;102953.97;6242473;28;20252;-71
2024/01/31 02:18:34;;;;;;;2.03;0.70;;;;;;;6.18;100.00;102945.44;6247098;28;20232;-70
2024/01/31 02:22:02;;;;;;;1.03;0.87;;;;;;;6.19;100.00;102947.22;6240527;28;20628;-70
2024/01/31 02:25:24;;;;;;;1.80;0.90;;;;;;;6.10;100.00;102941.31;6240299;28;20242;-70
2024/01/31 02:28:45;;;;;;;1.63;1.50;;;;;;;6.17;100.00;102950.88;6248974;28;20231;-70
2024/01/31 02:32:07;;;;;;;1.83;0.87;;;;;;;6.22;100.00;102951.56;6234561;28;20228;-69
2024/01/31 02:35:28;;;;;;;2.10;1.17;;;;;;;6.01;100.00;102947.88;6238343;28;20224;-70
2024/01/31 02:38:49;;;;;;;0.70;0.70;;;;;;;5.93;100.00;102941.94;6249650;28;20616;-71
2024/01/31 02:42:11;;;;;;;1.27;0.77;;;;;;;5.85;100.00;102944.03;6240840;28;20518;-70
2024/01/31 02:45:33;;;;;;;2.27;1.03;;;;;;;5.87;100.00;102943.94;6238230;28;20236;-71
2024/01/31 02:48:54;;;;;;;1.37;0.80;;;;;;;5.97;100.00;102937.34;6242715;28;20255;-70
2024/01/31 02:52:15;;;;;;;1.17;1.07;;;;;;;6.03;100.00;102937.13;6238832;28;20767;-71
2024/01/31 02:55:36;;;;;;;3.57;0.90;;;;;;;5.96;100.00;102928.44;6244661;28;20228;-70
2024/01/31 02:58:59;;;;;;;2.93;1.30;;;;;;;5.96;100.00;102930.25;6252661;28;20236;-71
2024/01/31 03:02:20;;;;;;;6.53;1.63;;;;;;;5.88;100.00;102938.56;6232573;28;20236;-69
2024/01/31 03:05:40;;;;;;;2.13;1.20;;;;;;;5.93;100.00;102930.34;6234940;28;20611;-70
2024/01/31 03:09:01;;;;;;;3.43;1.33;;;;;;;5.95;100.00;102939.19;6252612;28;20227;-69
2024/01/31 03:12:22;;;;;;;1.77;1.40;;;;;;;6.03;100.00;102940.66;6230509;28;20295;-70
2024/01/31 03:15:44;;;;;;;1.10;1.00;;;;;;;6.04;100.00;102947.78;6236443;28;20247;-70
2024/01/31 03:19:05;;;;;;;2.90;1.43;;;;;;;5.83;100.00;102955.66;6244856;28;20243;-70
2024/01/31 03:22:26;;;;;;;6.37;1.57;;;;;;;5.97;100.00;102951.59;6242606;28;20677;-70
2024/01/31 03:25:47;;;;;;;2.10;1.33;;;;;;;6.01;100.00;102949.66;6240381;28;20227;-71
2024/01/31 03:29:09;;;;;;;16.67;2.63;;;;;;;5.99;100.00;102952.41;6250936;28;20240;-70
2024/01/31 03:32:31;;;;;;;7.57;1.93;;;;;;;5.86;100.00;102963.63;6218237;28;20228;-70
2024/01/31 03:35:52;;;;;;;7.60;2.27;;;;;;;5.84;100.00;102962.81;6243942;28;20892;-70
2024/01/31 03:39:14;;;;;;;8.33;1.93;;;;;;;5.96;100.00;102963.25;6250773;28;20318;-69
2024/01/31 03:42:35;;;;;;;2.50;1.70;;;;;;;5.95;100.00;102960.59;6236491;28;20292;-70
2024/01/31 03:45:56;;;;;;;4.43;2.37;;;;;;;6.00;100.00;102970.22;6242737;28;20223;-70
2024/01/31 03:49:18;;;;;;;6.13;2.20;;;;;;;6.02;100.00;102967.50;6245407;28;20232;-70
2024/01/31 03:52:39;;;;;;;2.03;1.93;;;;;;;6.08;100.00;102967.28;6241573;28;20256;-70
2024/01/31 03:56:00;;;;;;;5.00;2.57;;;;;;;6.08;100.00;102962.78;6250002;28;20223;-69
2024/01/31 03:59:21;;;;;;;3.73;2.60;;;;;;;5.98;100.00;102966.75;6256690;28;20224;-69
2024/01/31 04:02:41;;;;;;;2.50;2.30;;;;;;;5.99;100.00;102967.59;6235511;28;20621;-69
2024/01/31 04:06:04;;;;;;;5.53;2.90;;;;;;;5.87;100.00;102966.25;6246589;28;21698;-70
2024/01/31 04:09:25;;;;;;;6.33;2.77;;;;;;;5.71;100.00;102974.84;6246238;28;20775;-70
2024/01/31 04:12:47;;;;;;;3.17;2.30;;;;;;;5.81;100.00;102976.25;6237295;28;20256;-69
2024/01/31 04:16:08;;;;;;;4.07;1.73;;;;;;;5.91;100.00;102975.91;6240061;28;20236;-69
2024/01/31 04:19:29;;;;;;;6.57;1.83;;;;;;;5.99;100.00;102967.59;6248497;28;20593;-70
2024/01/31 04:22:52;;;;;;;4.20;2.70;;;;;;;6.02;100.00;102988.91;6239521;28;20239;-70
2024/01/31 04:26:12;;;;;;;4.53;2.03;;;;;;;5.92;100.00;102985.69;6238782;28;20605;-70
2024/01/31 04:29:33;;;;;;;5.17;2.30;;;;;;;5.96;100.00;102995.38;6243783;28;20323;-70
2024/01/31 04:32:54;;;;;;;1.87;1.70;;;;;;;6.04;100.00;102998.63;6235469;28;20563;-70
2024/01/31 04:36:15;;;;;;;8.70;2.20;;;;;;;6.03;100.00;103004.06;6238461;28;20244;-70
2024/01/31 04:39:37;;;;;;;5.67;2.63;;;;;;;5.98;100.00;103014.94;6245152;28;20220;-70
2024/01/31 04:42:58;;;;;;;7.83;2.43;;;;;;;5.91;100.00;103010.72;6245882;28;20256;-70
2024/01/31 04:46:19;;;;;;;7.43;4.17;;;;;;;5.58;100.00;103019.88;6223202;28;20319;-70
2024/01/31 04:49:40;;;;;;;4.03;1.57;;;;;;;5.68;100.00;103016.81;6249618;28;20617;-70
2024/01/31 04:53:01;;;;;;;5.93;2.50;;;;;;;5.89;100.00;103009.88;6243229;28;20265;-69
2024/01/31 04:56:24;;;;;;;4.80;1.90;;;;;;;5.94;100.00;103013.28;6243342;28;20255;-70
2024/01/31 04:59:46;;;;;;;5.37;2.17;;;;;;;6.00;100.00;103013.06;6241264;28;20244;-70
2024/01/31 05:03:07;;;;;;;3.00;1.70;;;;;;;5.91;100.00;103002.69;6245309;28;20231;-70
2024/01/31 05:06:28;;;;;;;2.40;2.20;;;;;;;5.99;100.00;103005.94;6240028;28;20236;-69
2024/01/31 05:09:49;;;;;;;5.20;2.67;;;;;;;5.90;100.00;103017.00;6246236;28;20311;-69
2024/01/31 05:13:12;;;;;;;2.97;1.67;;;;;;;5.91;100.00;103009.81;6241665;28;20239;-69
2024/01/31 05:16:36;;;;;;;6.93;2.83;;;;;;;6.05;100.00;103008.41;6211255;28;20617;-69
2024/01/31 05:19:57;;;;;;;5.30;1.80;;;;;;;6.04;100.00;103005.78;6236886;28;20605;-69
2024/01/31 05:23:18;;;;;;;4.33;2.30;;;;;;;6.04;100.00;103017.38;6246577;28;20231;-70
2024/01/31 05:26:40;;;;;;;4.33;1.77;;;;;;;6.12;100.00;103014.41;6234835;28;20220;-70
2024/01/31 05:30:03;;;;;;;6.53;3.13;;;;;;;6.01;100.00;103005.88;6236019;28;20310;-70
2024/01/31 05:33:24;;;;;;;4.27;1.90;;;;;;;5.95;100.00;103019.50;6239789;28;20239;-69
2024/01/31 05:36:45;;;;;;;5.37;2.23;;;;;;;6.03;100.00;103023.66;6234815;28;21381;-70
2024/01/31 05:40:08;;;;;;;6.33;2.30;;;;;;;6.00;100.00;103031.81;6232662;28;20720;-69
2024/01/31 05:43:28;;;;;;;9.40;1.90;;;;;;;6.10;100.00;103043.06;6253364;28;20224;-69
2024/01/31 05:46:50;;;;;;;5.33;1.83;;;;;;;6.13;100.00;103041.13;6244325;28;20223;-69
2024/01/31 05:50:11;;;;;;;5.47;1.83;;;;;;;6.07;100.00;103040.50;6248123;28;20241;-69
2024/01/31 05:53:32;;;;;;;9.53;1.90;;;;;;;6.12;100.00;103041.19;6253716;28;20235;-69
2024/01/31 05:56:53;;;;;;;2.43;1.70;;;;;;;6.13;100.00;103043.81;6250304;28;20246;-69
2024/01/31 06:00:15;;;;;;;2.77;1.60;;;;;;;5.89;100.00;103047.34;6246795;28;20247;-69
2024/01/31 06:03:37;;;;;;;3.53;2.37;;;;;;;5.94;100.00;103040.06;6257888;28;20605;-69
2024/01/31 06:06:58;;;;;;;7.83;2.87;;;;;;;5.93;100.00;103032.94;6250340;28;20617;-69
2024/01/31 06:10:20;;;;;;;5.37;2.37;;;;;;;5.86;100.00;103044.78;6239516;28;20224;-69
2024/01/31 06:13:41;;;;;;;8.03;2.90;;;;;;;5.87;100.00;103057.25;6246313;28;20232;-69
2024/01/31 06:17:02;;;;;;;5.27;2.97;;;;;;;6.02;100.00;103063.88;6249310;28;20227;-69
2024/01/31 06:20:24;;;;;;;3.43;1.57;;;;;;;6.04;100.00;103067.38;6219796;28;20240;-68
2024/01/31 06:23:46;;;;;;;2.83;1.93;;;;;;;6.10;100.00;103069.81;6259170;28;20759;-69
2024/01/31 06:27:07;;;;;;;4.33;1.80;;;;;;;6.07;100.00;103070.81;6248479;28;20258;-69
2024/01/31 06:30:31;;;;;;;6.40;2.60;;;;;;;5.88;100.00;103074.19;6231590;28;20220;-70
2024/01/31 06:33:52;;;;;;;5.00;2.40;;;;;;;5.77;100.00;103081.66;6244622;28;20219;-69
2024/01/31 06:37:15;;;;;;;3.07;2.47;;;;;;;5.82;100.00;103082.38;6237981;28;20247;-69
2024/01/31 06:40:36;;;;;;;5.00;2.80;;;;;;;5.84;100.00;103086.78;6237890;28;20224;-69
2024/01/31 06:43:57;;;;;;;4.50;1.63;;;;;;;5.77;100.00;103081.66;6246891;28;20227;-69
2024/01/31 06:47:18;;;;;;;3.30;2.50;;;;;;;5.83;100.00;103084.13;6219798;28;20235;-70
2024/01/31 06:50:39;;;;;;;7.17;2.20;;;;;;;5.81;100.00;103086.84;6227226;28;20225;-70
2024/01/31 06:54:01;;;;;;;5.93;1.80;;;;;;;5.74;100.00;103089.81;6238668;28;20228;-70
2024/01/31 06:57:22;;;;;;;5.90;2.50;;;;;;;5.89;100.00;103095.53;6238718;28;20496;-70
2024/01/31 07:00:43;;;;;;;4.73;2.30;;;;;;;5.83;100.00;103094.81;6232678;28;20326;-70
2024/01/31 07:04:04;;;;;;;5.03;2.33;;;;;;;5.78;100.00;103102.16;6250018;28;20314;-70
2024/01/31 07:07:25;;;;;;;7.40;2.27;;;;;;;5.74;100.00;103098.69;6224902;28;20223;-70
2024/01/31 07:10:48;;;;;;;4.63;2.57;;;;;;;5.75;100.00;103099.56;6243061;28;20232;-69
2024/01/31 07:14:09;;;;;;;6.10;2.23;;;;;;;5.78;100.00;103112.84;6250514;28;20253;-70
2024/01/31 07:17:30;;;;;;;3.63;2.30;;;;;;;5.78;100.00;103113.72;6228908;28;20376;-69
2024/01/31 07:20:50;;;;;;;4.23;2.80;;;;;;;5.92;100.00;103116.84;6254163;28;20223;-70
2024/01/31 07:24:11;;;;;;;5.73;2.67;;;;;;;5.90;100.00;103116.03;6239372;28;20220;-70
2024/01/31 07:27:34;;;;;;;5.40;2.97;;;;;;;5.75;100.00;103124.53;6214641;28;20236;-69
2024/01/31 07:30:55;;;;;;;6.77;2.87;;;;;;;5.85;100.00;103117.97;6213415;28;20516;-68
2024/01/31 07:34:16;;;;;;;10.60;2.27;;;;;;;5.77;100.00;103122.69;6231079;28;20232;-68
2024/01/31 07:37:37;;;;;;;5.47;2.17;;;;;;;5.76;100.00;103123.59;6205020;28;20248;-67
2024/01/31 07:40:58;;;;;;;6.33;2.47;;;;;;;5.86;100.00;103113.50;6233324;28;20231;-70
2024/01/31 07:44:21;;;;;;;8.20;1.93;;;;;;;5.92;100.00;103134.72;6250079;28;20231;-70
2024/01/31 07:47:42;;;;;;;7.20;2.23;;;;;;;5.88;100.00;103141.09;6240973;28;20232;-70
2024/01/31 07:51:03;;;;;;;3.33;2.33;;;;;;;5.93;100.00;103133.75;6242908;28;20239;-69
2024/01/31 07:54:24;;;;;;;4.50;2.57;;;;;;;5.98;100.00;103123.78;6245603;28;20228;-70
2024/01/31 07:57:45;;;;;;;6.23;2.43;;;;;;;6.13;100.00;103129.50;6232921;28;20490;-69
2024/01/31 08:01:07;;;;;;;8.70;2.23;;;;;;;6.03;100.00;103122.69;6236988;28;20232;-68
2024/01/31 08:04:28;;;;;;;7.40;2.60;;;;;;;6.06;100.00;103122.63;6252866;28;20244;-68
2024/01/31 08:07:50;;;;;;;11.23;2.03;;;;;;;6.00;100.00;103121.94;6233389;28;20677;-68
2024/01/31 08:11:11;;;;;;;5.03;2.03;;;;;;;5.92;100.00;103115.97;6247389;28;20315;-68
2024/01/31 08:14:31;;;;;;;9.63;2.07;;;;;;;6.00;100.00;103117.47;6250521;28;20255;-67
2024/01/31 08:17:54;;;;;;;2.50;2.30;;;;;;;6.01;100.00;103129.03;6225099;28;20236;-70
2024/01/31 08:21:15;;;;;;;5.37;2.23;;;;;;;6.06;100.00;103127.09;6251459;28;20236;-69
2024/01/31 08:24:36;;;;;;;5.13;2.40;;;;;;;6.00;100.00;103132.66;6249666;28;20231;-68
2024/01/31 08:27:57;;;;;;;6.53;2.30;;;;;;;5.91;100.00;103144.53;6236056;28;20232;-69
2024/01/31 08:31:18;;;;;;;7.63;2.10;;;;;;;5.94;100.00;103157.84;6242752;28;20224;-71
2024/01/31 08:34:40;;;;;;;7.30;2.97;;;;;;;5.97;100.00;103178.25;6249084;28;20224;-69
2024/01/31 08:38:01;;;;;;;3.27;2.57;;;;;;;5.99;100.00;103176.38;6249749;28;20239;-68
2024/01/31 08:41:22;;;;;;;12.73;2.90;;;;;;;5.95;100.00;103180.97;6244819;28;20322;-69
2024/01/31 08:44:44;;;;;;;6.40;2.27;;;;;;;6.03;100.00;103180.75;6254874;28;20223;-68
2024/01/31 08:48:06;;;;;;;5.70;2.53;;;;;;;6.13;100.00;103171.47;6243566;28;20826;-69
2024/01/31 08:51:30;;;;;;;3.77;2.13;;;;;;;5.94;100.00;103171.22;6236004;28;20235;-69
2024/01/31 08:54:51;;;;;;;4.53;2.10;;;;;;;5.92;100.00;103167.72;6254609;28;21968;-68
2024/01/31 08:58:12;;;;;;;5.60;2.17;;;;;;;6.04;100.00;103164.63;6239201;28;20252;-68
2024/01/31 09:01:33;;;;;;;10.27;2.23;;;;;;;6.09;100.00;103168.00;6234054;28;20224;-69
2024/01/31 09:04:54;;;;;;;5.00;2.33;;;;;;;6.04;100.00;103159.28;6246623;28;20232;-70
2024/01/31 09:08:16;;;;;;;3.83;2.33;;;;;;;6.10;100.00;103171.56;6253740;28;20231;-68
2024/01/31 09:11:37;;;;;;;5.70;2.27;;;;;;;6.06;100.00;103162.78;6245846;28;21179;-69
2024/01/31 09:14:58;;;;;;;5.23;2.20;;;;;;;6.07;100.00;103153.78;6221902;28;20264;-69
2024/01/31 09:18:19;;;;;;;4.30;2.53;;;;;;;6.06;100.00;103160.09;6237382;28;20547;-68
2024/01/31 09:21:40;;;;;;;5.50;2.60;;;;;;;6.00;100.00;103162.97;6230544;28;20684;-68
2024/01/31 09:25:03;;;;;;;3.63;2.10;;;;;;;6.26;100.00;103157.59;6246660;28;20966;-69
2024/01/31 09:28:24;;;;;;;9.40;2.70;;;;;;;6.45;100.00;103150.69;6246600;28;20240;-69
2024/01/31 09:31:45;;;;;;;3.70;1.80;;;;;;;6.45;100.00;103139.97;6228460;28;20223;-68
2024/01/31 09:35:07;;;;;;;4.53;2.13;;;;;;;6.54;100.00;103136.09;6240216;28;20234;-68
2024/01/31 09:38:28;;;;;;;7.20;2.10;;;;;;;6.66;100.00;103138.31;6245600;28;20338;-68
2024/01/31 09:41:51;;;;;;;7.07;2.53;;;;;;;6.75;100.00;103143.34;6237899;28;20598;-68
2024/01/31 09:45:12;;;;;;;4.63;2.23;;;;;;;6.92;100.00;103134.69;6238362;28;20243;-68
2024/01/31 09:48:33;;;;;;;3.43;1.60;;;;;;;7.30;100.00;103139.47;6249875;28;20826;-68
2024/01/31 09:51:58;;;;;;;5.67;2.63;;;;;;;8.01;100.00;103142.78;6251412;28;20224;-68
2024/01/31 09:55:20;;;;;;;14.37;2.87;;;;;;;7.53;100.00;103127.84;6251727;28;20235;-67
2024/01/31 09:58:42;;;;;;;3.13;2.47;;;;;;;7.17;100.00;103127.47;6256057;28;20224;-68
2024/01/31 10:02:06;;;;;;;3.33;1.90;;;;;;;7.27;100.00;103115.44;6255289;28;20610;-69
2024/01/31 10:05:27;;;;;;;7.47;2.40;;;;;;;7.51;100.00;103102.88;6245901;28;20240;-68
2024/01/31 10:08:48;;;;;;;3.23;1.57;;;;;;;7.42;100.00;103095.19;6244548;28;20224;-69
2024/01/31 10:12:09;;;;;;;5.63;2.70;;;;;;;7.77;100.00;103089.25;6247918;28;20235;-68
2024/01/31 10:15:32;;;;;;;6.53;2.53;;;;;;;7.32;100.00;103085.75;6238473;28;20236;-68
2024/01/31 10:18:53;;;;;;;6.23;2.50;;;;;;;6.99;100.00;103096.84;6251888;28;20227;-68
2024/01/31 10:22:14;;;;;;;2.63;2.30;;;;;;;6.91;100.00;103085.56;6251023;28;20251;-68
2024/01/31 10:25:35;;;;;;;3.57;2.20;;;;;;;7.23;100.00;103084.31;6243391;28;20725;-69
2024/01/31 10:28:56;;;;;;;4.63;3.33;;;;;;;6.81;100.00;103077.91;6250162;28;20287;-68
2024/01/31 10:32:21;;;;;;;3.10;1.87;;;;;;;6.44;100.00;103087.34;6237739;28;20232;-67
2024/01/31 10:35:43;;;;;;;5.97;1.97;;;;;;;6.66;100.00;103079.38;6246221;28;20232;-68
2024/01/31 10:39:06;;;;;;;6.67;3.47;;;;;;;6.99;100.00;103086.13;6258727;28;20590;-68
2024/01/31 10:42:27;;;;;;;4.93;1.50;;;;;;;6.72;100.00;103068.41;6241318;28;20228;-68
2024/01/31 10:45:48;;;;;;;3.00;2.03;;;;;;;7.35;100.00;103050.72;6257495;28;20227;-68
2024/01/31 10:49:13;;;;;;;4.67;2.07;;;;;;;6.86;100.00;103057.19;6252332;28;20316;-68
2024/01/31 10:52:36;;;;;;;4.23;1.83;;;;;;;8.17;100.00;103045.44;6241309;28;20239;-68
2024/01/31 10:55:58;;;;;;;6.33;2.43;;;;;;;7.47;100.00;103032.31;6241255;28;20238;-70
2024/01/31 10:59:19;;;;;;;3.20;2.23;;;;;;;6.79;100.00;103036.91;6244912;28;20216;-69
2024/01/31 11:02:40;;;;;;;6.73;1.87;;;;;;;7.13;100.00;103040.88;6217417;28;20326;-71
2024/01/31 11:06:03;;;;;;;7.10;1.90;;;;;;;6.83;100.00;103035.84;6242577;28;20307;-70
2024/01/31 11:09:26;;;;;;;3.77;1.90;;;;;;;6.98;100.00;103037.94;6248030;28;20251;-70
2024/01/31 11:12:57;;;;;;;3.63;1.83;;;;;;;8.62;100.00;103027.25;6241535;28;20232;-70
2024/01/31 11:16:24;;;;;;;3.27;1.70;;;;;;;6.95;100.00;103043.41;6237261;28;20625;-69
2024/01/31 11:19:49;;;;;;;5.77;1.70;;;;;;;7.00;100.00;103038.75;6235870;28;20250;-68
2024/01/31 11:23:15;;;;;;;2.90;1.57;;;;;;;6.40;100.00;103056.19;6247873;28;20224;-68
2024/01/31 11:26:36;;;;;;;2.63;1.67;;;;;;;6.29;100.00;103047.72;6239452;28;20316;-69
2024/01/31 11:29:57;;;;;;;8.20;1.73;;;;;;;6.41;100.00;103035.66;6251799;28;20351;-69
2024/01/31 11:33:19;;;;;;;3.70;1.60;;;;;;;6.11;100.00;103048.34;6244083;28;20463;-68
2024/01/31 11:36:40;;;;;;;3.13;1.70;;;;;;;6.01;100.00;103033.53;6243727;28;20220;-69
2024/01/31 11:40:03;;;;;;;6.00;2.07;;;;;;;6.19;100.00;103042.72;6246886;28;20609;-69
2024/01/31 11:43:24;;;;;;;2.47;1.50;;;;;;;5.99;100.00;103037.19;6247175;28;20235;-67
2024/01/31 11:46:45;;;;;;;4.63;1.70;;;;;;;6.08;100.00;103027.06;6226416;28;20236;-68
2024/01/31 11:50:08;;;;;;;1.87;1.30;;;;;;;5.95;100.00;103035.56;6235827;28;20239;-68
2024/01/31 11:53:29;;;;;;;2.20;1.57;;;;;;;6.02;100.00;103034.41;6247527;28;20609;-70
2024/01/31 11:56:51;;;;;;;1.57;1.47;;;;;;;5.77;100.00;103029.03;6250501;28;20227;-70
2024/01/31 12:00:14;;;;;;;4.83;2.40;;;;;;;5.90;100.00;103000.06;6241501;28;20240;-70
2024/01/31 12:03:35;;;;;;;2.27;2.17;;;;;;;6.30;100.00;103014.63;6246574;28;20323;-71
2024/01/31 12:07:05;;;;;;;3.23;1.90;;;;;;;6.29;100.00;103004.84;6246821;28;20236;-71
2024/01/31 12:10:27;;;;;;;2.07;1.80;;;;;;;5.79;100.00;102997.72;6243058;28;20231;-69
2024/01/31 12:13:49;;;;;;;2.77;1.93;;;;;;;5.59;100.00;102987.69;6250425;28;20252;-68
2024/01/31 12:17:19;;;;;;;2.43;2.23;;;;;;;5.78;100.00;102966.53;6240127;28;20232;-68
2024/01/31 12:20:40;;;;;;;4.70;2.93;;;;;;;5.92;100.00;102950.91;6245942;28;20255;-69
2024/01/31 12:24:01;;;;;;;2.87;2.67;;;;;;;5.59;100.00;102962.78;6243666;28;20591;-69
2024/01/31 12:27:21;;;;;;;2.70;2.50;;;;;;;5.83;100.00;102942.28;6243328;28;20223;-70
2024/01/31 12:30:44;;;;;;;2.43;2.33;;;;;;;5.59;100.00;102931.53;6236160;28;20239;-73
2024/01/31 12:34:05;;;;;;;4.93;2.27;;;;;;;5.55;100.00;102918.31;6245288;28;20216;-69
2024/01/31 12:37:26;;;;;;;1.73;1.63;;;;;;;5.60;100.00;102921.69;6251399;28;20326;-74
2024/01/31 12:40:47;;;;;;;3.13;1.63;;;;;;;5.60;100.00;102901.19;6242657;28;20236;-69
2024/01/31 12:44:08;;;;;;;4.40;2.37;;;;;;;5.78;100.00;102912.16;6246898;28;20227;-69
2024/01/31 12:47:30;;;;;;;3.73;2.73;;;;;;;5.88;100.00;102905.56;6237616;28;20507;-71
2024/01/31 12:50:52;;;;;;;2.60;2.43;;;;;;;5.79;100.00;102904.06;6254933;28;20231;-71
2024/01/31 12:54:12;;;;;;;2.00;1.90;;;;;;;5.62;100.00;102917.16;6251005;28;20775;-70
2024/01/31 12:57:33;;;;;;;3.50;2.07;;;;;;;5.81;100.00;102904.88;6231537;28;20315;-71
2024/01/31 13:00:55;;;;;;;1.63;1.53;;;;;;;5.74;100.00;102903.34;6229278;28;20224;-71
2024/01/31 13:04:17;;;;;;;4.40;1.77;;;;;;;5.60;100.00;102927.06;6240891;28;20320;-69
2024/01/31 13:07:38;;;;;;;5.17;1.57;;;;;;;5.61;100.00;102902.91;6251298;28;20548;-71
2024/01/31 13:10:59;;;;;;;2.37;2.17;;;;;;;5.58;100.00;102910.19;6243436;28;20313;-70
2024/01/31 13:14:20;;;;;;;1.80;1.70;;;;;;;5.57;100.00;102908.41;6254044;28;20563;-72
2024/01/31 13:17:41;;;;;;;2.20;1.53;;;;;;;5.58;100.00;102900.38;6236951;28;20315;-70
2024/01/31 13:21:04;;;;;;;1.27;1.13;;;;;;;5.55;100.00;102886.19;6235845;28;20231;-70
2024/01/31 13:24:25;;;;;;;4.30;1.43;;;;;;;5.64;100.00;102877.84;6251589;28;20227;-72
2024/01/31 13:27:48;;;;;;;2.13;2.03;;;;;;;5.53;100.00;102888.94;6237572;28;20687;-71
2024/01/31 13:31:09;;;;;;;1.00;0.90;;;;;;;5.50;100.00;102889.06;6240041;28;20252;-70
2024/01/31 13:34:30;;;;;;;1.90;1.40;;;;;;;5.45;100.00;102884.78;6260481;28;20259;-70
2024/01/31 13:37:54;;;;;;;2.57;1.90;;;;;;;5.44;100.00;102885.72;6235011;28;20623;-71
2024/01/31 13:41:14;;;;;;;3.37;1.93;;;;;;;5.48;100.00;102882.03;6243906;28;20541;-72
2024/01/31 13:44:36;;;;;;;1.60;1.50;;;;;;;5.49;100.00;102875.72;6224462;28;24673;-70
2024/01/31 13:47:56;;;;;;;2.13;1.70;;;;;;;5.47;100.00;102878.47;6220960;28;20243;-71
2024/01/31 13:51:17;;;;;;;1.77;1.67;;;;;;;5.53;100.00;102894.28;6242519;28;20593;-70
2024/01/31 13:54:40;;;;;;;1.90;1.80;;;;;;;5.58;100.00;102860.25;6242122;28;20232;-70
2024/01/31 13:58:01;;;;;;;2.73;2.40;;;;;;;5.59;100.00;102861.97;6244424;28;20322;-71
2024/01/31 14:01:21;;;;;;;2.33;2.10;;;;;;;5.60;100.00;102854.81;6244959;28;20264;-70
2024/01/31 14:04:42;;;;;;;4.27;2.23;;;;;;;5.52;100.00;102848.88;6253462;28;20226;-69
2024/01/31 14:08:04;;;;;;;2.20;2.10;;;;;;;5.63;100.00;102831.50;6250659;28;20823;-70
2024/01/31 14:11:28;;;;;;;3.83;3.50;;;;;;;5.71;100.00;102825.00;6237277;28;20228;-70
2024/01/31 14:14:49;;;;;;;2.87;1.90;;;;;;;5.52;100.00;102800.75;6256879;28;20243;-70
2024/01/31 14:18:10;;;;;;;2.50;2.20;;;;;;;5.62;100.00;102800.34;6245313;28;20231;-69
2024/01/31 14:21:31;;;;;;;3.10;2.87;;;;;;;5.71;100.00;102788.44;6250751;28;20231;-68
2024/01/31 14:24:52;;;;;;;3.20;2.90;;;;;;;5.70;100.00;102786.66;6255172;28;20228;-68
2024/01/31 14:28:14;;;;;;;3.83;3.03;;;;;;;5.71;100.00;102777.72;6246984;28;20322;-68
2024/01/31 14:31:35;;;;;;;4.87;2.87;;;;;;;5.73;100.00;102775.88;6249108;28;20929;-68
2024/01/31 14:34:56;;;;;;;5.27;3.40;;;;;;;5.72;100.00;102742.00;6241246;28;20618;-69
2024/01/31 14:38:17;;;;;;;3.93;3.40;;;;;;;5.76;100.00;102750.81;6254739;28;20263;-69
2024/01/31 14:41:40;;;;;;;4.37;1.80;;;;;;;5.66;100.00;102731.53;6247743;28;20319;-68
2024/01/31 14:45:03;;;;;;;2.37;1.97;;;;;;;5.67;100.00;102728.78;6252017;28;20949;-68
2024/01/31 14:48:25;;;;;;;3.60;2.53;;;;;;;5.62;100.00;102730.78;6252273;28;20616;-69
2024/01/31 14:51:46;;;;;;;2.90;2.70;;;;;;;5.55;100.00;102733.75;6244024;28;20232;-69
2024/01/31 14:55:08;;;;;;;2.03;1.77;;;;;;;5.58;100.00;102717.59;6242134;28;20594;-69
2024/01/31 14:58:29;;;;;;;3.17;2.50;;;;;;;5.59;100.00;102711.31;6255870;28;20236;-68
2024/01/31 15:01:51;;;;;;;2.83;2.53;;;;;;;5.61;100.00;102699.59;6240232;28;20326;-69
2024/01/31 15:05:12;;;;;;;1.70;1.60;;;;;;;5.63;100.00;102707.59;6245025;28;20232;-70
2024/01/31 15:08:33;;;;;;;3.73;3.07;;;;;;;5.62;100.00;102696.00;6237641;28;20228;-70
2024/01/31 15:11:56;;;;;;;3.07;2.87;;;;;;;5.69;100.00;102686.78;6240031;28;20236;-70
2024/01/31 15:15:16;;;;;;;3.53;3.23;;;;;;;5.61;100.00;102683.56;6234628;28;20235;-68
2024/01/31 15:18:38;;;;;;;3.93;3.57;;;;;;;5.67;100.00;102667.25;6236289;28;20258;-69
2024/01/31 15:22:01;;;;;;;4.70;4.30;;;;;;;5.69;100.00;102657.38;6238074;28;20232;-69
2024/01/31 15:25:22;;;;;;;5.57;4.67;;;;;;;5.69;100.00;102668.06;6247555;28;20739;-68
2024/01/31 15:28:43;;;;;;;6.57;4.80;;;;;;;5.72;100.00;102664.41;6242465;28;20535;-68
2024/01/31 15:32:04;;;;;;;6.27;4.93;;;;;;;5.77;100.00;102661.56;6250830;28;20231;-68
2024/01/31 15:35:26;;;;;;;5.77;5.17;;;;;;;5.74;100.00;102657.19;6254593;28;20228;-70